sensor_id;sensor_type;location;lat;lon;timestamp;P1;durP1;ratioP1;P2;durP2;ratioP2
7659;SDS011;3872;47.902;8.162;2023-07-28T00:02:00;11.43;;;5.97;;
7659;SDS011;3872;47.902;8.162;2023-07-28T00:04:28;9.60;;;8.13;;
7659;SDS011;3872;47.902;8.162;2023-07-28T00:06:54;7.23;;;4.97;;
7659;SDS011;3872;47.902;8.162;2023-07-28T00:09:21;5.73;;;3.37;;
7659;SDS011;3872;47.902;8.162;2023-07-28T00:11:48;7.07;;;5.50;;
7659;SDS011;3872;47.902;8.162;2023-07-28T00:14:14;5.50;;;3.40;;
7659;SDS011;3872;47.902;8.162;2023-07-28T00:16:41;5.90;;;3.40;;
7659;SDS011;3872;47.902;8.162;2023-07-28T00:19:07;6.20;;;2.87;;
7659;SDS011;3872;47.902;8.162;2023-07-28T00:21:35;6.63;;;2.70;;
7659;SDS011;3872;47.902;8.162;2023-07-28T00:24:03;4.43;;;2.57;;
7659;SDS011;3872;47.902;8.162;2023-07-28T00:26:29;6.50;;;2.47;;
7659;SDS011;3872;47.902;8.162;2023-07-28T00:28:56;5.80;;;2.70;;
7659;SDS011;3872;47.902;8.162;2023-07-28T00:31:24;6.83;;;3.43;;
7659;SDS011;3872;47.902;8.162;2023-07-28T00:33:52;6.03;;;3.13;;
7659;SDS011;3872;47.902;8.162;2023-07-28T00:36:18;5.90;;;4.30;;
7659;SDS011;3872;47.902;8.162;2023-07-28T00:38:46;4.37;;;2.17;;
7659;SDS011;3872;47.902;8.162;2023-07-28T00:41:13;7.80;;;2.60;;
7659;SDS011;3872;47.902;8.162;2023-07-28T00:43:39;4.90;;;2.80;;
7659;SDS011;3872;47.902;8.162;2023-07-28T00:46:06;5.40;;;2.93;;
7659;SDS011;3872;47.902;8.162;2023-07-28T00:48:33;6.27;;;2.80;;
7659;SDS011;3872;47.902;8.162;2023-07-28T00:50:59;6.10;;;2.40;;
7659;SDS011;3872;47.902;8.162;2023-07-28T00:53:26;4.57;;;2.30;;
7659;SDS011;3872;47.902;8.162;2023-07-28T00:55:56;8.30;;;2.97;;
7659;SDS011;3872;47.902;8.162;2023-07-28T00:58:23;10.73;;;3.07;;
7659;SDS011;3872;47.902;8.162;2023-07-28T01:00:50;6.27;;;2.73;;
7659;SDS011;3872;47.902;8.162;2023-07-28T01:03:17;5.53;;;2.57;;
7659;SDS011;3872;47.902;8.162;2023-07-28T01:05:48;5.30;;;2.67;;
7659;SDS011;3872;47.902;8.162;2023-07-28T01:08:22;5.40;;;2.90;;
7659;SDS011;3872;47.902;8.162;2023-07-28T01:10:57;6.20;;;2.70;;
7659;SDS011;3872;47.902;8.162;2023-07-28T01:13:24;5.40;;;2.47;;
7659;SDS011;3872;47.902;8.162;2023-07-28T01:15:50;4.70;;;2.60;;
7659;SDS011;3872;47.902;8.162;2023-07-28T01:18:17;6.80;;;2.70;;
7659;SDS011;3872;47.902;8.162;2023-07-28T01:20:43;7.77;;;2.83;;
7659;SDS011;3872;47.902;8.162;2023-07-28T01:23:18;5.77;;;3.30;;
7659;SDS011;3872;47.902;8.162;2023-07-28T01:25:48;5.57;;;2.80;;
7659;SDS011;3872;47.902;8.162;2023-07-28T01:28:21;19.33;;;3.63;;
7659;SDS011;3872;47.902;8.162;2023-07-28T01:30:48;5.43;;;2.73;;
7659;SDS011;3872;47.902;8.162;2023-07-28T01:33:15;11.30;;;3.07;;
7659;SDS011;3872;47.902;8.162;2023-07-28T01:35:41;5.57;;;2.73;;
7659;SDS011;3872;47.902;8.162;2023-07-28T01:38:08;5.77;;;2.87;;
7659;SDS011;3872;47.902;8.162;2023-07-28T01:40:35;5.20;;;2.80;;
7659;SDS011;3872;47.902;8.162;2023-07-28T01:43:01;5.23;;;2.47;;
7659;SDS011;3872;47.902;8.162;2023-07-28T01:45:29;5.83;;;3.10;;
7659;SDS011;3872;47.902;8.162;2023-07-28T01:47:56;5.30;;;2.77;;
7659;SDS011;3872;47.902;8.162;2023-07-28T01:50:22;4.97;;;3.07;;
7659;SDS011;3872;47.902;8.162;2023-07-28T01:52:49;5.60;;;2.77;;
7659;SDS011;3872;47.902;8.162;2023-07-28T01:55:15;6.03;;;2.57;;
7659;SDS011;3872;47.902;8.162;2023-07-28T01:57:49;5.13;;;2.90;;
7659;SDS011;3872;47.902;8.162;2023-07-28T02:00:17;7.20;;;2.83;;
7659;SDS011;3872;47.902;8.162;2023-07-28T02:02:48;5.00;;;2.60;;
7659;SDS011;3872;47.902;8.162;2023-07-28T02:05:14;4.60;;;2.37;;
7659;SDS011;3872;47.902;8.162;2023-07-28T02:07:41;7.57;;;3.23;;
7659;SDS011;3872;47.902;8.162;2023-07-28T02:10:08;6.57;;;3.33;;
7659;SDS011;3872;47.902;8.162;2023-07-28T02:12:35;7.30;;;3.13;;
7659;SDS011;3872;47.902;8.162;2023-07-28T02:15:01;5.60;;;2.77;;
7659;SDS011;3872;47.902;8.162;2023-07-28T02:17:28;5.10;;;2.60;;
7659;SDS011;3872;47.902;8.162;2023-07-28T02:19:56;5.10;;;2.73;;
7659;SDS011;3872;47.902;8.162;2023-07-28T02:22:23;8.33;;;3.57;;
7659;SDS011;3872;47.902;8.162;2023-07-28T02:24:49;6.07;;;3.23;;
7659;SDS011;3872;47.902;8.162;2023-07-28T02:27:16;7.73;;;2.73;;
7659;SDS011;3872;47.902;8.162;2023-07-28T02:29:42;6.17;;;3.10;;
7659;SDS011;3872;47.902;8.162;2023-07-28T02:32:10;7.33;;;3.50;;
7659;SDS011;3872;47.902;8.162;2023-07-28T02:34:36;5.40;;;2.57;;
7659;SDS011;3872;47.902;8.162;2023-07-28T02:37:04;5.50;;;2.80;;
7659;SDS011;3872;47.902;8.162;2023-07-28T02:39:31;5.90;;;2.70;;
7659;SDS011;3872;47.902;8.162;2023-07-28T02:41:58;5.23;;;2.93;;
7659;SDS011;3872;47.902;8.162;2023-07-28T02:44:24;6.83;;;2.80;;
7659;SDS011;3872;47.902;8.162;2023-07-28T02:46:51;5.20;;;2.40;;
7659;SDS011;3872;47.902;8.162;2023-07-28T02:49:18;5.90;;;2.67;;
7659;SDS011;3872;47.902;8.162;2023-07-28T02:51:45;6.47;;;2.50;;
7659;SDS011;3872;47.902;8.162;2023-07-28T02:54:13;5.67;;;2.60;;
7659;SDS011;3872;47.902;8.162;2023-07-28T02:56:39;4.80;;;2.50;;
7659;SDS011;3872;47.902;8.162;2023-07-28T02:59:10;10.33;;;2.70;;
7659;SDS011;3872;47.902;8.162;2023-07-28T03:01:36;6.43;;;2.93;;
7659;SDS011;3872;47.902;8.162;2023-07-28T03:04:03;15.73;;;2.70;;
7659;SDS011;3872;47.902;8.162;2023-07-28T03:06:44;6.70;;;2.20;;
7659;SDS011;3872;47.902;8.162;2023-07-28T03:09:12;5.97;;;3.00;;
7659;SDS011;3872;47.902;8.162;2023-07-28T03:11:47;5.20;;;3.00;;
7659;SDS011;3872;47.902;8.162;2023-07-28T03:14:14;4.93;;;2.77;;
7659;SDS011;3872;47.902;8.162;2023-07-28T03:16:42;7.37;;;2.73;;
7659;SDS011;3872;47.902;8.162;2023-07-28T03:19:08;6.93;;;2.53;;
7659;SDS011;3872;47.902;8.162;2023-07-28T03:21:35;5.50;;;2.80;;
7659;SDS011;3872;47.902;8.162;2023-07-28T03:24:02;9.30;;;2.83;;
7659;SDS011;3872;47.902;8.162;2023-07-28T03:26:30;6.20;;;2.63;;
7659;SDS011;3872;47.902;8.162;2023-07-28T03:28:56;6.20;;;2.30;;
7659;SDS011;3872;47.902;8.162;2023-07-28T03:31:23;6.30;;;2.13;;
7659;SDS011;3872;47.902;8.162;2023-07-28T03:33:50;5.67;;;2.87;;
7659;SDS011;3872;47.902;8.162;2023-07-28T03:36:16;4.77;;;2.47;;
7659;SDS011;3872;47.902;8.162;2023-07-28T03:38:44;7.00;;;3.40;;
7659;SDS011;3872;47.902;8.162;2023-07-28T03:41:11;5.10;;;2.20;;
7659;SDS011;3872;47.902;8.162;2023-07-28T03:43:39;6.10;;;3.07;;
7659;SDS011;3872;47.902;8.162;2023-07-28T03:46:06;6.53;;;1.83;;
7659;SDS011;3872;47.902;8.162;2023-07-28T03:48:33;4.40;;;2.20;;
7659;SDS011;3872;47.902;8.162;2023-07-28T03:50:59;5.83;;;2.47;;
7659;SDS011;3872;47.902;8.162;2023-07-28T03:53:26;5.50;;;2.43;;
7659;SDS011;3872;47.902;8.162;2023-07-28T03:55:52;4.90;;;2.07;;
7659;SDS011;3872;47.902;8.162;2023-07-28T03:58:23;5.90;;;2.23;;
7659;SDS011;3872;47.902;8.162;2023-07-28T04:00:50;4.60;;;2.13;;
7659;SDS011;3872;47.902;8.162;2023-07-28T04:03:18;4.60;;;2.00;;
7659;SDS011;3872;47.902;8.162;2023-07-28T04:05:45;5.87;;;2.30;;
7659;SDS011;3872;47.902;8.162;2023-07-28T04:08:12;5.17;;;2.03;;
7659;SDS011;3872;47.902;8.162;2023-07-28T04:10:38;6.13;;;2.17;;
7659;SDS011;3872;47.902;8.162;2023-07-28T04:13:05;5.10;;;2.00;;
7659;SDS011;3872;47.902;8.162;2023-07-28T04:15:32;5.10;;;2.80;;
7659;SDS011;3872;47.902;8.162;2023-07-28T04:17:59;4.60;;;1.80;;
7659;SDS011;3872;47.902;8.162;2023-07-28T04:20:26;4.90;;;2.40;;
7659;SDS011;3872;47.902;8.162;2023-07-28T04:22:52;5.00;;;2.00;;
7659;SDS011;3872;47.902;8.162;2023-07-28T04:25:19;4.63;;;1.80;;
7659;SDS011;3872;47.902;8.162;2023-07-28T04:27:47;5.80;;;2.20;;
7659;SDS011;3872;47.902;8.162;2023-07-28T04:30:14;5.30;;;1.90;;
7659;SDS011;3872;47.902;8.162;2023-07-28T04:32:40;4.90;;;2.20;;
7659;SDS011;3872;47.902;8.162;2023-07-28T04:35:16;5.37;;;2.33;;
7659;SDS011;3872;47.902;8.162;2023-07-28T04:37:54;4.70;;;1.97;;
7659;SDS011;3872;47.902;8.162;2023-07-28T04:40:47;6.00;;;1.83;;
7659;SDS011;3872;47.902;8.162;2023-07-28T04:43:18;7.90;;;2.20;;
7659;SDS011;3872;47.902;8.162;2023-07-28T04:45:50;5.90;;;1.80;;
7659;SDS011;3872;47.902;8.162;2023-07-28T04:48:19;7.87;;;2.07;;
7659;SDS011;3872;47.902;8.162;2023-07-28T04:50:47;5.07;;;2.00;;
7659;SDS011;3872;47.902;8.162;2023-07-28T04:53:29;6.80;;;2.60;;
7659;SDS011;3872;47.902;8.162;2023-07-28T04:56:09;5.00;;;1.77;;
7659;SDS011;3872;47.902;8.162;2023-07-28T04:58:36;7.57;;;1.80;;
7659;SDS011;3872;47.902;8.162;2023-07-28T05:01:02;4.27;;;2.17;;
7659;SDS011;3872;47.902;8.162;2023-07-28T05:03:31;7.20;;;2.27;;
7659;SDS011;3872;47.902;8.162;2023-07-28T05:06:11;4.83;;;1.80;;
7659;SDS011;3872;47.902;8.162;2023-07-28T05:08:39;5.00;;;1.93;;
7659;SDS011;3872;47.902;8.162;2023-07-28T05:11:06;4.30;;;1.60;;
7659;SDS011;3872;47.902;8.162;2023-07-28T05:13:33;4.70;;;1.87;;
7659;SDS011;3872;47.902;8.162;2023-07-28T05:15:59;4.80;;;2.10;;
7659;SDS011;3872;47.902;8.162;2023-07-28T05:18:49;5.47;;;1.83;;
7659;SDS011;3872;47.902;8.162;2023-07-28T05:21:34;4.43;;;1.50;;
7659;SDS011;3872;47.902;8.162;2023-07-28T05:24:01;5.60;;;2.10;;
7659;SDS011;3872;47.902;8.162;2023-07-28T05:26:29;5.43;;;2.03;;
7659;SDS011;3872;47.902;8.162;2023-07-28T05:28:56;11.43;;;2.00;;
7659;SDS011;3872;47.902;8.162;2023-07-28T05:31:23;6.40;;;2.47;;
7659;SDS011;3872;47.902;8.162;2023-07-28T05:33:50;5.23;;;1.67;;
7659;SDS011;3872;47.902;8.162;2023-07-28T05:36:19;5.13;;;2.00;;
7659;SDS011;3872;47.902;8.162;2023-07-28T05:38:47;5.07;;;1.90;;
7659;SDS011;3872;47.902;8.162;2023-07-28T05:41:14;4.80;;;1.90;;
7659;SDS011;3872;47.902;8.162;2023-07-28T05:43:43;6.50;;;1.67;;
7659;SDS011;3872;47.902;8.162;2023-07-28T05:46:10;7.77;;;1.90;;
7659;SDS011;3872;47.902;8.162;2023-07-28T05:48:36;5.37;;;1.87;;
7659;SDS011;3872;47.902;8.162;2023-07-28T05:51:03;6.23;;;1.73;;
7659;SDS011;3872;47.902;8.162;2023-07-28T05:53:30;4.70;;;1.97;;
7659;SDS011;3872;47.902;8.162;2023-07-28T05:56:03;5.77;;;1.60;;
7659;SDS011;3872;47.902;8.162;2023-07-28T05:58:32;7.50;;;1.70;;
7659;SDS011;3872;47.902;8.162;2023-07-28T06:00:58;4.77;;;1.67;;
7659;SDS011;3872;47.902;8.162;2023-07-28T06:03:54;7.53;;;2.27;;
7659;SDS011;3872;47.902;8.162;2023-07-28T06:06:24;6.40;;;2.17;;
7659;SDS011;3872;47.902;8.162;2023-07-28T06:08:52;5.33;;;1.73;;
7659;SDS011;3872;47.902;8.162;2023-07-28T06:11:20;5.27;;;1.90;;
7659;SDS011;3872;47.902;8.162;2023-07-28T06:13:47;6.60;;;1.77;;
7659;SDS011;3872;47.902;8.162;2023-07-28T06:16:14;4.83;;;1.83;;
7659;SDS011;3872;47.902;8.162;2023-07-28T06:22:29;5.13;;;1.70;;
7659;SDS011;3872;47.902;8.162;2023-07-28T06:24:56;4.93;;;1.70;;
7659;SDS011;3872;47.902;8.162;2023-07-28T06:27:24;4.93;;;2.07;;
7659;SDS011;3872;47.902;8.162;2023-07-28T06:29:51;5.10;;;1.63;;
7659;SDS011;3872;47.902;8.162;2023-07-28T06:32:17;4.87;;;1.30;;
7659;SDS011;3872;47.902;8.162;2023-07-28T06:34:45;4.77;;;2.00;;
7659;SDS011;3872;47.902;8.162;2023-07-28T06:37:12;4.90;;;1.80;;
7659;SDS011;3872;47.902;8.162;2023-07-28T06:39:39;6.87;;;2.20;;
7659;SDS011;3872;47.902;8.162;2023-07-28T06:42:06;5.10;;;1.90;;
7659;SDS011;3872;47.902;8.162;2023-07-28T06:44:38;5.43;;;1.97;;
7659;SDS011;3872;47.902;8.162;2023-07-28T06:47:04;5.60;;;1.80;;
7659;SDS011;3872;47.902;8.162;2023-07-28T06:49:31;5.80;;;1.80;;
7659;SDS011;3872;47.902;8.162;2023-07-28T06:52:00;5.80;;;2.03;;
7659;SDS011;3872;47.902;8.162;2023-07-28T06:54:26;5.07;;;1.70;;
7659;SDS011;3872;47.902;8.162;2023-07-28T06:56:53;5.87;;;2.07;;
7659;SDS011;3872;47.902;8.162;2023-07-28T06:59:19;8.17;;;1.50;;
7659;SDS011;3872;47.902;8.162;2023-07-28T07:01:47;4.77;;;1.70;;
7659;SDS011;3872;47.902;8.162;2023-07-28T07:04:14;9.07;;;1.97;;
7659;SDS011;3872;47.902;8.162;2023-07-28T07:06:41;6.00;;;1.90;;
7659;SDS011;3872;47.902;8.162;2023-07-28T07:09:07;5.00;;;1.60;;
7659;SDS011;3872;47.902;8.162;2023-07-28T07:11:35;7.37;;;1.90;;
7659;SDS011;3872;47.902;8.162;2023-07-28T07:15:14;4.50;;;1.60;;
7659;SDS011;3872;47.902;8.162;2023-07-28T07:17:42;6.30;;;1.77;;
7659;SDS011;3872;47.902;8.162;2023-07-28T07:20:09;6.10;;;2.30;;
7659;SDS011;3872;47.902;8.162;2023-07-28T07:22:36;4.50;;;1.60;;
7659;SDS011;3872;47.902;8.162;2023-07-28T07:25:04;5.60;;;1.80;;
7659;SDS011;3872;47.902;8.162;2023-07-28T07:27:33;6.30;;;2.03;;
7659;SDS011;3872;47.902;8.162;2023-07-28T07:29:59;5.33;;;1.90;;
7659;SDS011;3872;47.902;8.162;2023-07-28T07:32:26;4.97;;;1.67;;
7659;SDS011;3872;47.902;8.162;2023-07-28T07:34:54;5.47;;;1.80;;
7659;SDS011;3872;47.902;8.162;2023-07-28T07:37:20;4.47;;;1.40;;
7659;SDS011;3872;47.902;8.162;2023-07-28T07:39:47;6.97;;;2.40;;
7659;SDS011;3872;47.902;8.162;2023-07-28T07:42:14;6.43;;;2.83;;
7659;SDS011;3872;47.902;8.162;2023-07-28T07:44:40;7.77;;;2.53;;
7659;SDS011;3872;47.902;8.162;2023-07-28T07:47:13;8.93;;;1.90;;
7659;SDS011;3872;47.902;8.162;2023-07-28T07:49:40;4.70;;;1.67;;
7659;SDS011;3872;47.902;8.162;2023-07-28T07:52:08;5.20;;;1.90;;
7659;SDS011;3872;47.902;8.162;2023-07-28T07:54:35;5.63;;;1.77;;
7659;SDS011;3872;47.902;8.162;2023-07-28T07:57:02;4.90;;;1.53;;
7659;SDS011;3872;47.902;8.162;2023-07-28T07:59:29;6.03;;;1.90;;
7659;SDS011;3872;47.902;8.162;2023-07-28T08:01:57;8.47;;;2.03;;
7659;SDS011;3872;47.902;8.162;2023-07-28T08:04:25;5.30;;;2.00;;
7659;SDS011;3872;47.902;8.162;2023-07-28T08:06:53;6.40;;;2.03;;
7659;SDS011;3872;47.902;8.162;2023-07-28T08:09:20;5.63;;;1.73;;
7659;SDS011;3872;47.902;8.162;2023-07-28T08:11:47;5.00;;;2.00;;
7659;SDS011;3872;47.902;8.162;2023-07-28T08:14:14;5.80;;;2.07;;
7659;SDS011;3872;47.902;8.162;2023-07-28T08:16:40;7.03;;;2.10;;
7659;SDS011;3872;47.902;8.162;2023-07-28T08:19:07;4.70;;;1.70;;
7659;SDS011;3872;47.902;8.162;2023-07-28T08:21:33;4.80;;;1.80;;
7659;SDS011;3872;47.902;8.162;2023-07-28T08:24:01;4.60;;;1.70;;
7659;SDS011;3872;47.902;8.162;2023-07-28T08:26:30;5.90;;;2.20;;
7659;SDS011;3872;47.902;8.162;2023-07-28T08:28:56;6.10;;;1.97;;
7659;SDS011;3872;47.902;8.162;2023-07-28T08:31:23;4.70;;;1.60;;
7659;SDS011;3872;47.902;8.162;2023-07-28T08:33:50;5.67;;;1.90;;
7659;SDS011;3872;47.902;8.162;2023-07-28T08:36:16;5.70;;;2.30;;
7659;SDS011;3872;47.902;8.162;2023-07-28T08:38:43;5.23;;;1.90;;
7659;SDS011;3872;47.902;8.162;2023-07-28T08:41:10;4.80;;;1.73;;
7659;SDS011;3872;47.902;8.162;2023-07-28T08:43:38;7.70;;;1.73;;
7659;SDS011;3872;47.902;8.162;2023-07-28T08:46:05;5.43;;;1.87;;
7659;SDS011;3872;47.902;8.162;2023-07-28T08:48:33;5.60;;;2.10;;
7659;SDS011;3872;47.902;8.162;2023-07-28T08:50:59;5.30;;;2.10;;
7659;SDS011;3872;47.902;8.162;2023-07-28T08:53:26;7.67;;;1.80;;
7659;SDS011;3872;47.902;8.162;2023-07-28T08:55:52;15.53;;;2.03;;
7659;SDS011;3872;47.902;8.162;2023-07-28T08:58:19;7.20;;;2.00;;
7659;SDS011;3872;47.902;8.162;2023-07-28T09:00:50;7.57;;;2.20;;
7659;SDS011;3872;47.902;8.162;2023-07-28T09:03:18;5.30;;;2.13;;
7659;SDS011;3872;47.902;8.162;2023-07-28T09:05:46;9.30;;;2.23;;
7659;SDS011;3872;47.902;8.162;2023-07-28T09:08:12;6.07;;;1.83;;
7659;SDS011;3872;47.902;8.162;2023-07-28T09:10:43;5.40;;;2.17;;
7659;SDS011;3872;47.902;8.162;2023-07-28T09:13:11;5.10;;;1.83;;
7659;SDS011;3872;47.902;8.162;2023-07-28T09:15:38;5.60;;;1.73;;
7659;SDS011;3872;47.902;8.162;2023-07-28T09:18:08;5.73;;;2.30;;
7659;SDS011;3872;47.902;8.162;2023-07-28T09:20:35;5.27;;;2.00;;
7659;SDS011;3872;47.902;8.162;2023-07-28T09:23:03;4.70;;;1.70;;
7659;SDS011;3872;47.902;8.162;2023-07-28T09:25:31;5.70;;;1.90;;
7659;SDS011;3872;47.902;8.162;2023-07-28T09:27:58;5.87;;;2.03;;
7659;SDS011;3872;47.902;8.162;2023-07-28T09:30:25;5.27;;;1.90;;
7659;SDS011;3872;47.902;8.162;2023-07-28T09:32:53;4.67;;;1.63;;
7659;SDS011;3872;47.902;8.162;2023-07-28T09:35:22;5.17;;;1.90;;
7659;SDS011;3872;47.902;8.162;2023-07-28T09:37:49;5.23;;;1.97;;
7659;SDS011;3872;47.902;8.162;2023-07-28T09:40:18;6.23;;;2.27;;
7659;SDS011;3872;47.902;8.162;2023-07-28T09:42:46;5.17;;;2.03;;
7659;SDS011;3872;47.902;8.162;2023-07-28T09:45:15;6.43;;;1.43;;
7659;SDS011;3872;47.902;8.162;2023-07-28T09:47:43;6.73;;;1.43;;
7659;SDS011;3872;47.902;8.162;2023-07-28T09:50:10;5.13;;;1.73;;
7659;SDS011;3872;47.902;8.162;2023-07-28T09:52:42;4.67;;;1.63;;
7659;SDS011;3872;47.902;8.162;2023-07-28T09:55:10;4.63;;;1.83;;
7659;SDS011;3872;47.902;8.162;2023-07-28T09:57:43;5.40;;;1.80;;
7659;SDS011;3872;47.902;8.162;2023-07-28T10:00:13;5.17;;;1.80;;
7659;SDS011;3872;47.902;8.162;2023-07-28T10:02:41;5.80;;;2.07;;
7659;SDS011;3872;47.902;8.162;2023-07-28T10:05:09;5.17;;;2.27;;
7659;SDS011;3872;47.902;8.162;2023-07-28T10:07:37;5.90;;;2.40;;
7659;SDS011;3872;47.902;8.162;2023-07-28T10:10:07;6.40;;;2.53;;
7659;SDS011;3872;47.902;8.162;2023-07-28T10:12:40;6.43;;;2.63;;
7659;SDS011;3872;47.902;8.162;2023-07-28T10:15:11;5.63;;;1.87;;
7659;SDS011;3872;47.902;8.162;2023-07-28T10:17:41;7.17;;;1.90;;
7659;SDS011;3872;47.902;8.162;2023-07-28T10:23:06;6.40;;;1.87;;
7659;SDS011;3872;47.902;8.162;2023-07-28T10:25:35;5.37;;;1.93;;
7659;SDS011;3872;47.902;8.162;2023-07-28T10:28:03;5.50;;;2.00;;
7659;SDS011;3872;47.902;8.162;2023-07-28T10:30:34;5.17;;;2.20;;
7659;SDS011;3872;47.902;8.162;2023-07-28T10:33:02;6.10;;;2.20;;
7659;SDS011;3872;47.902;8.162;2023-07-28T10:35:29;5.47;;;2.40;;
7659;SDS011;3872;47.902;8.162;2023-07-28T10:37:58;5.33;;;2.00;;
7659;SDS011;3872;47.902;8.162;2023-07-28T10:40:28;6.50;;;1.70;;
7659;SDS011;3872;47.902;8.162;2023-07-28T10:42:58;6.00;;;2.50;;
7659;SDS011;3872;47.902;8.162;2023-07-28T10:45:25;6.03;;;2.00;;
7659;SDS011;3872;47.902;8.162;2023-07-28T10:47:53;5.53;;;2.43;;
7659;SDS011;3872;47.902;8.162;2023-07-28T10:50:21;6.30;;;1.83;;
7659;SDS011;3872;47.902;8.162;2023-07-28T10:52:48;5.80;;;1.83;;
7659;SDS011;3872;47.902;8.162;2023-07-28T10:55:15;4.90;;;1.93;;
7659;SDS011;3872;47.902;8.162;2023-07-28T10:57:44;5.60;;;2.30;;
7659;SDS011;3872;47.902;8.162;2023-07-28T11:00:16;5.40;;;2.23;;
7659;SDS011;3872;47.902;8.162;2023-07-28T11:02:59;4.90;;;2.30;;
7659;SDS011;3872;47.902;8.162;2023-07-28T11:10:18;6.03;;;2.00;;
7659;SDS011;3872;47.902;8.162;2023-07-28T11:14:18;5.53;;;2.00;;
7659;SDS011;3872;47.902;8.162;2023-07-28T11:28:45;5.77;;;1.80;;
7659;SDS011;3872;47.902;8.162;2023-07-28T11:31:38;6.03;;;1.57;;
7659;SDS011;3872;47.902;8.162;2023-07-28T11:34:12;5.70;;;2.40;;
7659;SDS011;3872;47.902;8.162;2023-07-28T11:36:39;8.53;;;2.60;;
7659;SDS011;3872;47.902;8.162;2023-07-28T11:39:07;5.90;;;2.10;;
7659;SDS011;3872;47.902;8.162;2023-07-28T11:41:35;5.90;;;1.90;;
7659;SDS011;3872;47.902;8.162;2023-07-28T11:44:04;6.20;;;2.40;;
7659;SDS011;3872;47.902;8.162;2023-07-28T11:46:34;6.23;;;2.20;;
7659;SDS011;3872;47.902;8.162;2023-07-28T11:49:06;9.83;;;1.83;;
7659;SDS011;3872;47.902;8.162;2023-07-28T11:51:36;7.20;;;2.27;;
7659;SDS011;3872;47.902;8.162;2023-07-28T11:54:04;8.50;;;2.33;;
7659;SDS011;3872;47.902;8.162;2023-07-28T11:56:33;6.03;;;1.90;;
7659;SDS011;3872;47.902;8.162;2023-07-28T11:59:01;7.80;;;2.23;;
7659;SDS011;3872;47.902;8.162;2023-07-28T12:01:30;4.77;;;1.90;;
7659;SDS011;3872;47.902;8.162;2023-07-28T12:03:56;7.33;;;2.07;;
7659;SDS011;3872;47.902;8.162;2023-07-28T12:06:25;8.03;;;2.67;;
7659;SDS011;3872;47.902;8.162;2023-07-28T12:08:52;8.50;;;2.33;;
7659;SDS011;3872;47.902;8.162;2023-07-28T12:12:28;5.70;;;2.47;;
7659;SDS011;3872;47.902;8.162;2023-07-28T12:15:01;6.40;;;2.03;;
7659;SDS011;3872;47.902;8.162;2023-07-28T12:20:32;5.33;;;2.40;;
7659;SDS011;3872;47.902;8.162;2023-07-28T12:22:59;6.10;;;2.40;;
7659;SDS011;3872;47.902;8.162;2023-07-28T12:25:26;5.33;;;2.30;;
7659;SDS011;3872;47.902;8.162;2023-07-28T12:27:53;5.70;;;2.43;;
7659;SDS011;3872;47.902;8.162;2023-07-28T12:30:19;7.43;;;2.60;;
7659;SDS011;3872;47.902;8.162;2023-07-28T12:32:46;9.53;;;2.27;;
7659;SDS011;3872;47.902;8.162;2023-07-28T12:35:15;5.90;;;2.40;;
7659;SDS011;3872;47.902;8.162;2023-07-28T12:37:41;6.33;;;2.10;;
7659;SDS011;3872;47.902;8.162;2023-07-28T12:40:09;5.80;;;2.80;;
7659;SDS011;3872;47.902;8.162;2023-07-28T12:42:36;7.77;;;2.60;;
7659;SDS011;3872;47.902;8.162;2023-07-28T12:45:03;9.40;;;3.00;;
7659;SDS011;3872;47.902;8.162;2023-07-28T12:47:31;5.57;;;2.47;;
7659;SDS011;3872;47.902;8.162;2023-07-28T12:49:58;6.63;;;2.93;;
7659;SDS011;3872;47.902;8.162;2023-07-28T12:52:26;5.50;;;2.37;;
7659;SDS011;3872;47.902;8.162;2023-07-28T12:54:53;7.87;;;2.70;;
7659;SDS011;3872;47.902;8.162;2023-07-28T12:57:19;8.03;;;3.03;;
7659;SDS011;3872;47.902;8.162;2023-07-28T12:59:46;7.50;;;2.80;;
7659;SDS011;3872;47.902;8.162;2023-07-28T13:02:12;6.23;;;2.20;;
7659;SDS011;3872;47.902;8.162;2023-07-28T13:04:39;8.80;;;2.73;;
7659;SDS011;3872;47.902;8.162;2023-07-28T13:07:05;6.43;;;3.03;;
7659;SDS011;3872;47.902;8.162;2023-07-28T13:09:34;5.37;;;2.63;;
7659;SDS011;3872;47.902;8.162;2023-07-28T13:16:16;6.00;;;2.87;;
7659;SDS011;3872;47.902;8.162;2023-07-28T13:19:42;6.70;;;3.00;;
7659;SDS011;3872;47.902;8.162;2023-07-28T13:22:20;5.10;;;2.17;;
7659;SDS011;3872;47.902;8.162;2023-07-28T13:28:23;7.90;;;2.17;;
7659;SDS011;3872;47.902;8.162;2023-07-28T13:30:50;6.33;;;2.80;;
7659;SDS011;3872;47.902;8.162;2023-07-28T13:33:17;7.30;;;2.20;;
7659;SDS011;3872;47.902;8.162;2023-07-28T13:35:43;6.27;;;2.90;;
7659;SDS011;3872;47.902;8.162;2023-07-28T13:38:10;7.40;;;3.20;;
7659;SDS011;3872;47.902;8.162;2023-07-28T13:40:36;6.20;;;2.97;;
7659;SDS011;3872;47.902;8.162;2023-07-28T13:43:04;5.63;;;2.47;;
7659;SDS011;3872;47.902;8.162;2023-07-28T13:45:31;7.30;;;2.50;;
7659;SDS011;3872;47.902;8.162;2023-07-28T13:47:58;6.93;;;2.93;;
7659;SDS011;3872;47.902;8.162;2023-07-28T13:50:24;5.23;;;2.20;;
7659;SDS011;3872;47.902;8.162;2023-07-28T13:52:51;6.40;;;1.97;;
7659;SDS011;3872;47.902;8.162;2023-07-28T13:55:18;6.43;;;2.57;;
7659;SDS011;3872;47.902;8.162;2023-07-28T13:57:44;6.90;;;2.20;;
7659;SDS011;3872;47.902;8.162;2023-07-28T14:00:11;5.93;;;2.00;;
7659;SDS011;3872;47.902;8.162;2023-07-28T14:02:40;6.03;;;2.60;;
7659;SDS011;3872;47.902;8.162;2023-07-28T14:05:07;8.40;;;2.40;;
7659;SDS011;3872;47.902;8.162;2023-07-28T14:07:34;6.80;;;2.87;;
7659;SDS011;3872;47.902;8.162;2023-07-28T14:10:02;7.80;;;2.57;;
7659;SDS011;3872;47.902;8.162;2023-07-28T14:12:29;7.10;;;2.33;;
7659;SDS011;3872;47.902;8.162;2023-07-28T14:14:55;7.07;;;2.67;;
7659;SDS011;3872;47.902;8.162;2023-07-28T14:17:22;6.07;;;2.50;;
7659;SDS011;3872;47.902;8.162;2023-07-28T14:19:50;5.30;;;2.27;;
7659;SDS011;3872;47.902;8.162;2023-07-28T14:22:17;6.73;;;1.90;;
7659;SDS011;3872;47.902;8.162;2023-07-28T14:24:44;5.50;;;2.13;;
7659;SDS011;3872;47.902;8.162;2023-07-28T14:27:11;7.90;;;1.90;;
7659;SDS011;3872;47.902;8.162;2023-07-28T14:29:37;4.87;;;1.63;;
7659;SDS011;3872;47.902;8.162;2023-07-28T14:32:05;5.30;;;1.77;;
7659;SDS011;3872;47.902;8.162;2023-07-28T14:34:31;5.03;;;1.53;;
7659;SDS011;3872;47.902;8.162;2023-07-28T14:37:00;4.80;;;1.90;;
7659;SDS011;3872;47.902;8.162;2023-07-28T14:39:27;4.50;;;1.60;;
7659;SDS011;3872;47.902;8.162;2023-07-28T14:41:54;4.60;;;1.20;;
7659;SDS011;3872;47.902;8.162;2023-07-28T14:44:20;4.70;;;1.20;;
7659;SDS011;3872;47.902;8.162;2023-07-28T14:46:47;17.93;;;3.10;;
7659;SDS011;3872;47.902;8.162;2023-07-28T14:49:14;4.70;;;1.23;;
7659;SDS011;3872;47.902;8.162;2023-07-28T14:51:40;8.03;;;1.33;;
7659;SDS011;3872;47.902;8.162;2023-07-28T14:54:08;4.60;;;1.30;;
7659;SDS011;3872;47.902;8.162;2023-07-28T14:56:35;4.30;;;1.10;;
7659;SDS011;3872;47.902;8.162;2023-07-28T14:59:01;4.63;;;1.50;;
7659;SDS011;3872;47.902;8.162;2023-07-28T15:01:28;10.27;;;1.30;;
7659;SDS011;3872;47.902;8.162;2023-07-28T15:03:55;5.43;;;1.13;;
7659;SDS011;3872;47.902;8.162;2023-07-28T15:06:21;4.43;;;1.60;;
7659;SDS011;3872;47.902;8.162;2023-07-28T15:08:48;4.30;;;1.10;;
7659;SDS011;3872;47.902;8.162;2023-07-28T15:11:16;4.07;;;0.93;;
7659;SDS011;3872;47.902;8.162;2023-07-28T15:13:43;5.07;;;1.17;;
7659;SDS011;3872;47.902;8.162;2023-07-28T15:16:09;5.00;;;1.40;;
7659;SDS011;3872;47.902;8.162;2023-07-28T15:18:36;4.67;;;1.00;;
7659;SDS011;3872;47.902;8.162;2023-07-28T15:21:02;7.93;;;1.13;;
7659;SDS011;3872;47.902;8.162;2023-07-28T15:23:30;6.27;;;1.17;;
7659;SDS011;3872;47.902;8.162;2023-07-28T15:25:56;4.27;;;0.97;;
7659;SDS011;3872;47.902;8.162;2023-07-28T15:28:24;4.47;;;1.33;;
7659;SDS011;3872;47.902;8.162;2023-07-28T15:30:51;4.40;;;1.27;;
7659;SDS011;3872;47.902;8.162;2023-07-28T15:33:20;12.90;;;1.77;;
7659;SDS011;3872;47.902;8.162;2023-07-28T15:35:50;4.30;;;1.20;;
7659;SDS011;3872;47.902;8.162;2023-07-28T15:38:17;4.20;;;1.10;;
7659;SDS011;3872;47.902;8.162;2023-07-28T15:40:43;4.50;;;1.03;;
7659;SDS011;3872;47.902;8.162;2023-07-28T15:43:10;4.40;;;1.10;;
7659;SDS011;3872;47.902;8.162;2023-07-28T15:45:38;6.30;;;2.00;;
7659;SDS011;3872;47.902;8.162;2023-07-28T15:48:06;5.50;;;1.10;;
7659;SDS011;3872;47.902;8.162;2023-07-28T15:54:49;10.93;;;3.10;;
7659;SDS011;3872;47.902;8.162;2023-07-28T15:57:16;5.53;;;2.07;;
7659;SDS011;3872;47.902;8.162;2023-07-28T15:59:44;6.73;;;2.07;;
7659;SDS011;3872;47.902;8.162;2023-07-28T16:02:12;5.90;;;1.43;;
7659;SDS011;3872;47.902;8.162;2023-07-28T16:04:39;6.83;;;2.00;;